createdAt,value
2022-12-18T00:04:45.185Z,30.60
2022-12-18T00:10:09.854Z,29.35
2022-12-18T00:15:35.681Z,37.17
2022-12-18T00:21:01.621Z,53.28
2022-12-18T00:26:28.048Z,46.92
2022-12-18T00:31:55.893Z,38.75
2022-12-18T00:37:21.660Z,43.25
2022-12-18T00:43:00.363Z,43.40
2022-12-18T00:48:25.696Z,43.42
2022-12-18T00:53:49.332Z,35.58
2022-12-18T00:59:12.915Z,36.63
2022-12-18T01:04:37.984Z,41.83
2022-12-18T01:10:01.590Z,30.65
2022-12-18T01:15:25.357Z,39.92
2022-12-18T01:20:50.337Z,35.92
2022-12-18T01:26:16.030Z,37.60
2022-12-18T01:31:40.843Z,37.13
2022-12-18T01:37:06.524Z,40.45
2022-12-18T01:42:30.213Z,38.47
2022-12-18T01:47:56.177Z,35.85
2022-12-18T01:53:24.124Z,43.20
2022-12-18T01:58:54.917Z,43.20
2022-12-18T02:04:23.160Z,37.03
2022-12-18T02:09:51.406Z,36.45
2022-12-18T02:15:20.883Z,46.38
2022-12-18T02:20:50.007Z,40.78
2022-12-18T02:26:26.822Z,43.13
2022-12-18T02:31:55.383Z,29.90
2022-12-18T02:37:21.412Z,38.60
2022-12-18T02:42:48.154Z,34.20
2022-12-18T02:48:15.389Z,41.83
2022-12-18T02:53:46.304Z,37.10
2022-12-18T02:59:16.482Z,38.88
2022-12-18T03:04:52.061Z,30.85
2022-12-18T03:10:23.952Z,32.65
2022-12-18T03:15:51.568Z,33.67
2022-12-18T03:21:16.863Z,40.85
2022-12-18T03:26:44.961Z,44.42
2022-12-18T03:32:19.181Z,35.17
2022-12-18T03:37:43.267Z,39.08
2022-12-18T03:43:13.641Z,30.17
2022-12-18T03:48:43.868Z,38.70
2022-12-18T03:54:12.331Z,41.33
2022-12-18T03:59:42.723Z,36.45
2022-12-18T04:05:10.262Z,35.00
2022-12-18T04:10:37.666Z,42.45
2022-12-18T04:16:02.106Z,38.30
2022-12-18T04:21:27.204Z,35.17
2022-12-18T04:26:50.938Z,33.17
2022-12-18T04:32:19.728Z,42.45
2022-12-18T04:37:46.668Z,33.92
2022-12-18T04:43:10.620Z,37.05
2022-12-18T04:48:34.824Z,38.53
2022-12-18T04:54:00.934Z,29.65
2022-12-18T04:59:24.724Z,34.83
2022-12-18T05:04:48.390Z,37.78
2022-12-18T05:10:13.341Z,37.22
2022-12-18T05:15:36.990Z,40.70
2022-12-18T05:21:00.786Z,27.95
2022-12-18T05:26:25.805Z,31.73
2022-12-18T05:31:49.526Z,31.65
2022-12-18T05:37:13.206Z,36.40
2022-12-18T05:42:38.465Z,36.53
2022-12-18T05:48:02.073Z,35.58
2022-12-18T05:53:25.737Z,30.98
2022-12-18T05:58:54.387Z,25.17
2022-12-18T06:04:18.058Z,29.50
2022-12-18T06:09:41.707Z,26.55
2022-12-18T06:15:07.717Z,23.20
2022-12-18T06:20:33.804Z,30.83
2022-12-18T06:25:57.908Z,30.00
2022-12-18T06:31:22.954Z,25.08
2022-12-18T06:36:46.652Z,27.00
2022-12-18T06:42:10.265Z,32.90
2022-12-18T06:47:35.249Z,23.92
2022-12-18T06:52:58.829Z,32.15
2022-12-18T06:58:22.641Z,30.85
2022-12-18T07:03:47.722Z,22.92
2022-12-18T07:09:11.393Z,35.83
2022-12-18T07:14:35.305Z,26.35
2022-12-18T07:20:00.352Z,35.05
2022-12-18T07:25:23.969Z,33.28
2022-12-18T07:30:47.575Z,32.92
2022-12-18T07:36:13.467Z,33.20
2022-12-18T07:41:37.110Z,35.35
2022-12-18T07:47:10.548Z,36.88
2022-12-18T07:52:37.129Z,37.55
2022-12-18T07:58:03.320Z,44.08
2022-12-18T08:03:26.910Z,40.80
2022-12-18T08:08:53.204Z,40.35
2022-12-18T08:14:17.522Z,40.08
2022-12-18T08:19:41.538Z,42.78
2022-12-18T08:25:07.701Z,56.60
2022-12-18T08:30:31.398Z,45.55
2022-12-18T08:35:55.257Z,60.63
2022-12-18T08:41:20.494Z,50.53
2022-12-18T08:46:46.624Z,47.63
2022-12-18T08:52:10.264Z,55.35
2022-12-18T08:57:35.249Z,62.25
2022-12-18T09:02:58.990Z,57.58
2022-12-18T09:08:22.735Z,61.45
2022-12-18T09:13:47.865Z,63.55
2022-12-18T09:19:12.239Z,44.67
2022-12-18T09:24:35.868Z,48.53
2022-12-18T09:30:00.885Z,53.03
2022-12-18T09:35:24.516Z,52.00
2022-12-18T09:40:51.370Z,44.38
2022-12-18T09:46:21.494Z,51.58
2022-12-18T09:51:49.425Z,39.17
2022-12-18T09:57:16.499Z,51.13
2022-12-18T10:02:41.602Z,54.40
2022-12-18T10:08:09.942Z,53.22
2022-12-18T10:13:39.770Z,45.00
2022-12-18T10:19:18.058Z,51.25
2022-12-18T10:24:50.949Z,43.83
2022-12-18T10:30:16.732Z,42.97
2022-12-18T10:35:43.401Z,43.58
2022-12-18T10:41:10.625Z,55.63
2022-12-18T10:46:35.626Z,50.47
2022-12-18T10:52:17.840Z,49.53
2022-12-18T11:03:32.317Z,35.47
2022-12-18T11:09:06.552Z,44.63
2022-12-18T11:14:35.349Z,38.53
2022-12-18T11:20:00.773Z,34.20
2022-12-18T11:25:35.049Z,33.38
2022-12-18T11:31:18.196Z,36.08
2022-12-18T11:36:44.990Z,34.42
2022-12-18T11:42:16.677Z,33.15
2022-12-18T11:47:46.293Z,38.28
2022-12-18T11:53:13.313Z,32.80
2022-12-18T11:58:49.721Z,35.35
2022-12-18T12:04:38.136Z,34.63
2022-12-18T12:10:14.304Z,32.13
2022-12-18T12:15:48.273Z,32.28
2022-12-18T12:21:22.659Z,31.00
2022-12-18T12:26:54.549Z,32.28
2022-12-18T12:32:30.413Z,30.67
2022-12-18T12:38:06.147Z,29.95
2022-12-18T12:43:38.032Z,27.70
2022-12-18T12:54:30.390Z,27.88
2022-12-18T13:00:02.901Z,28.13
2022-12-18T13:05:32.255Z,31.98
2022-12-18T13:11:18.744Z,45.97
2022-12-18T13:16:43.433Z,36.47
2022-12-18T13:22:23.539Z,34.40
2022-12-18T13:28:04.893Z,32.60
2022-12-18T13:39:37.443Z,34.78
2022-12-18T13:45:03.673Z,34.17
2022-12-18T13:50:35.441Z,40.83
2022-12-18T13:56:01.493Z,35.63
2022-12-18T14:01:25.512Z,35.53
2022-12-18T14:06:51.301Z,38.08
2022-12-18T14:12:37.715Z,37.95
2022-12-18T14:18:03.364Z,39.80
2022-12-18T14:23:29.526Z,39.88
2022-12-18T14:28:54.954Z,162.32
2022-12-18T14:34:20.260Z,56.90
2022-12-18T14:39:55.381Z,44.40
2022-12-18T14:45:41.601Z,36.53
2022-12-18T14:51:09.261Z,39.85
2022-12-18T14:56:35.695Z,44.97
2022-12-18T15:02:06.176Z,41.20
2022-12-18T15:07:42.653Z,41.17
2022-12-18T15:13:11.696Z,39.28
2022-12-18T15:18:44.194Z,40.28
2022-12-18T15:24:20.357Z,37.88
2022-12-18T15:29:44.064Z,39.47
2022-12-18T15:35:17.191Z,44.92
2022-12-18T15:40:40.885Z,52.75
2022-12-18T15:46:06.363Z,47.92
2022-12-18T15:51:34.622Z,52.85
2022-12-18T15:57:16.159Z,58.35
2022-12-18T16:02:40.129Z,74.55
2022-12-18T16:08:05.877Z,73.68
2022-12-18T16:13:29.654Z,62.08
2022-12-18T16:18:53.643Z,53.90
2022-12-18T16:24:19.989Z,59.50
2022-12-18T16:29:43.772Z,64.50
2022-12-18T16:35:08.451Z,53.25
2022-12-18T16:40:54.955Z,54.70
2022-12-18T16:46:18.828Z,50.53
2022-12-18T16:51:43.074Z,46.92
2022-12-18T16:57:08.265Z,43.40
2022-12-18T17:02:32.156Z,42.15
2022-12-18T17:07:55.940Z,37.92
2022-12-18T17:13:25.607Z,44.45
2022-12-18T17:18:50.200Z,51.03
2022-12-18T17:24:14.149Z,51.95
2022-12-18T17:29:45.363Z,53.92
2022-12-18T17:35:10.686Z,44.95
2022-12-18T17:40:34.629Z,46.22
2022-12-18T17:46:03.444Z,37.38
2022-12-18T17:51:30.113Z,44.67
2022-12-18T17:56:53.886Z,53.25
2022-12-18T18:02:19.179Z,43.25
2022-12-18T18:07:43.199Z,46.05
2022-12-18T18:13:25.072Z,45.38
2022-12-18T18:18:50.161Z,42.13
2022-12-18T18:24:15.510Z,48.85
2022-12-18T18:29:39.472Z,48.72
2022-12-18T18:35:04.749Z,46.92
2022-12-18T18:40:28.477Z,55.92
2022-12-18T18:45:57.285Z,44.20
2022-12-18T18:51:22.929Z,47.10
2022-12-18T18:57:18.888Z,44.08
2022-12-18T19:02:30.548Z,57.50
2022-12-18T19:07:56.689Z,44.53
2022-12-18T19:13:24.866Z,46.25
2022-12-18T19:18:48.844Z,54.25
2022-12-18T19:24:13.863Z,49.17
2022-12-18T19:29:37.771Z,46.15
2022-12-18T19:35:03.586Z,48.30
2022-12-18T19:40:30.339Z,45.25
2022-12-18T19:45:56.222Z,43.95
2022-12-18T19:51:23.668Z,52.55
2022-12-18T19:56:48.977Z,46.88
2022-12-18T20:02:14.970Z,49.47
2022-12-18T20:07:39.406Z,43.63
2022-12-18T20:13:06.524Z,47.13
2022-12-18T20:18:30.357Z,53.05
2022-12-18T20:23:54.904Z,48.92
2022-12-18T20:29:20.359Z,47.47
2022-12-18T20:34:44.319Z,50.28
2022-12-18T20:40:10.579Z,69.38
2022-12-18T20:45:37.181Z,81.85
2022-12-18T20:51:06.054Z,56.60
2022-12-18T20:56:31.075Z,86.55
2022-12-18T21:01:56.469Z,100.15
2022-12-18T21:07:20.315Z,118.60
2022-12-18T21:12:50.951Z,108.78
2022-12-18T21:18:25.405Z,104.38
2022-12-18T21:23:49.315Z,84.32
2022-12-18T21:29:15.175Z,83.20
2022-12-18T21:34:46.027Z,61.63
2022-12-18T21:40:12.782Z,59.70
2022-12-18T21:45:36.712Z,54.25
2022-12-18T21:51:01.875Z,52.70
2022-12-18T21:56:25.968Z,54.05
2022-12-18T22:01:50.750Z,54.42
2022-12-18T22:07:16.977Z,62.40
2022-12-18T22:12:44.189Z,50.75
2022-12-18T22:18:09.759Z,52.75
2022-12-18T22:23:35.052Z,51.13
2022-12-18T22:29:16.085Z,58.72
2022-12-18T22:34:40.241Z,41.22
2022-12-18T22:40:07.452Z,45.70
2022-12-18T22:45:32.217Z,42.58
2022-12-18T22:50:59.558Z,56.67
2022-12-18T22:56:25.206Z,57.40
2022-12-18T23:01:50.237Z,53.13
2022-12-18T23:07:16.941Z,45.55
2022-12-18T23:12:42.051Z,48.58
2022-12-18T23:18:06.052Z,56.78
2022-12-18T23:23:34.583Z,48.80
2022-12-18T23:29:01.360Z,43.28
2022-12-18T23:34:25.120Z,40.45
2022-12-18T23:39:48.748Z,39.90
2022-12-18T23:45:17.570Z,39.67
2022-12-18T23:50:41.931Z,34.83
2022-12-18T23:56:07.643Z,45.55
